Terminal Aerodrome Forecast
Issued by NWS

Home | Current Version | Previous Version | Text Only | Print | Product List | Glossary On
Versions: 1 2 3 4 5 6 7 8 9 10 11 12 13
000
FTUS43 KGRB 300520
TAFMTW
TAF
KMTW 300520Z 3006/3106 35006KT 6SM -RA BR BKN015
     FM301000 02010G17KT 5SM -RA BR OVC007
     FM301700 02013G22KT P6SM -SHRA BKN019
     FM302100 03014G25KT P6SM SCT022 BKN100
     FM302300 03012KT P6SM SKC=

USA.gov is the U.S. government's official web portal to all federal, state and local government web resources and services.